createdAt,value
2023-01-11T00:01:35.455Z,5.80
2023-01-11T00:04:05.968Z,5.83
2023-01-11T00:06:36.394Z,5.77
2023-01-11T00:09:06.902Z,5.78
2023-01-11T00:11:39.830Z,5.92
2023-01-11T00:14:10.140Z,5.86
2023-01-11T00:16:40.495Z,5.83
2023-01-11T00:19:11.065Z,5.86
2023-01-11T00:21:41.405Z,5.82
2023-01-11T00:24:11.821Z,5.90
2023-01-11T00:26:44.753Z,5.94
2023-01-11T00:29:15.069Z,5.96
2023-01-11T00:31:45.326Z,6.02
2023-01-11T00:34:16.041Z,6.11
2023-01-11T00:36:46.392Z,6.10
2023-01-11T00:39:16.669Z,6.16
2023-01-11T00:42:01.926Z,6.18
2023-01-11T00:44:44.639Z,6.16
2023-01-11T00:47:29.752Z,6.11
2023-01-11T00:50:00.089Z,6.18
2023-01-11T00:52:30.681Z,6.20
2023-01-11T00:55:01.018Z,6.25
2023-01-11T00:57:33.988Z,6.23
2023-01-11T01:00:04.338Z,6.23
2023-01-11T01:02:35.692Z,6.28
2023-01-11T01:05:06.113Z,6.36
2023-01-11T01:07:36.727Z,6.28
2023-01-11T01:10:09.491Z,6.35
2023-01-11T01:12:55.127Z,6.49
2023-01-11T01:15:25.933Z,6.42
2023-01-11T01:17:57.757Z,6.41
2023-01-11T01:20:29.031Z,6.45
2023-01-11T01:22:59.320Z,6.48
2023-01-11T01:25:29.588Z,6.50
2023-01-11T01:28:02.525Z,6.53
2023-01-11T01:30:33.870Z,6.53
2023-01-11T01:33:04.204Z,6.58
2023-01-11T01:35:35.597Z,6.61
2023-01-11T01:38:05.878Z,6.69
2023-01-11T01:40:36.223Z,6.66
2023-01-11T01:43:12.379Z,6.59
2023-01-11T01:45:43.873Z,6.61
2023-01-11T01:48:18.341Z,6.55
2023-01-11T01:50:53.257Z,6.60
2023-01-11T01:53:28.745Z,6.61
2023-01-11T01:56:04.707Z,6.56
2023-01-11T01:58:42.001Z,6.56
2023-01-11T02:01:24.707Z,6.70
2023-01-11T02:03:56.389Z,6.72
2023-01-11T02:06:27.215Z,6.79
2023-01-11T02:09:05.438Z,6.75
2023-01-11T02:11:43.412Z,6.78
2023-01-11T02:14:20.550Z,6.80
2023-01-11T02:16:51.175Z,6.77
2023-01-11T02:19:36.514Z,6.82
2023-01-11T02:22:45.058Z,7.02
2023-01-11T02:26:06.268Z,6.99
2023-01-11T02:28:55.896Z,6.98
2023-01-11T02:31:34.842Z,6.99
2023-01-11T02:34:35.647Z,6.93
2023-01-11T02:37:20.490Z,6.96
2023-01-11T02:40:02.812Z,6.99
2023-01-11T02:42:54.607Z,6.88
2023-01-11T02:45:50.003Z,6.86
2023-01-11T02:48:29.976Z,6.86
2023-01-11T02:51:08.075Z,6.89
2023-01-11T02:53:46.013Z,7.00
2023-01-11T02:56:20.821Z,7.06
2023-01-11T02:58:55.208Z,7.03
2023-01-11T03:01:28.535Z,7.04
2023-01-11T03:03:59.083Z,7.07
2023-01-11T03:06:34.413Z,7.18
2023-01-11T03:09:23.299Z,7.21
2023-01-11T03:12:26.400Z,7.30
2023-01-11T03:15:10.207Z,7.33
2023-01-11T03:17:56.134Z,7.34
2023-01-11T03:20:34.217Z,7.33
2023-01-11T03:23:17.412Z,7.33
2023-01-11T03:26:01.689Z,7.45
2023-01-11T03:28:40.544Z,7.44
2023-01-11T03:31:20.987Z,7.45
2023-01-11T03:34:03.336Z,7.45
2023-01-11T03:36:40.087Z,7.54
2023-01-11T03:39:17.879Z,7.49
2023-01-11T03:41:52.952Z,7.44
2023-01-11T03:44:25.036Z,7.49
2023-01-11T03:47:01.053Z,7.49
2023-01-11T03:49:37.258Z,7.51
2023-01-11T03:52:12.832Z,7.49
2023-01-11T03:54:43.919Z,7.47
2023-01-11T03:57:17.712Z,7.47
2023-01-11T03:59:48.135Z,7.51
2023-01-11T04:02:20.255Z,7.51
2023-01-11T04:04:53.461Z,7.54
2023-01-11T04:07:24.190Z,7.51
2023-01-11T04:09:54.572Z,7.53
2023-01-11T04:12:24.802Z,7.59
2023-01-11T04:14:55.128Z,7.61
2023-01-11T04:17:25.406Z,7.59
2023-01-11T04:19:58.311Z,7.47
2023-01-11T04:22:28.599Z,7.48
2023-01-11T04:24:58.857Z,7.55
2023-01-11T04:27:29.187Z,7.52
2023-01-11T04:29:59.489Z,7.53
2023-01-11T04:32:29.738Z,7.48
2023-01-11T04:35:02.640Z,7.52
2023-01-11T04:37:32.989Z,7.55
2023-01-11T04:40:03.511Z,7.53
2023-01-11T04:42:31.239Z,7.52
2023-01-11T04:45:01.510Z,7.52
2023-01-11T04:47:32.032Z,7.45
2023-01-11T04:50:05.056Z,7.45
2023-01-11T04:52:35.431Z,7.42
2023-01-11T04:55:05.861Z,7.43
2023-01-11T04:57:36.241Z,7.45
2023-01-11T05:00:10.879Z,7.52
2023-01-11T05:02:41.332Z,7.49
2023-01-11T05:05:14.887Z,7.45
2023-01-11T05:07:45.313Z,7.55
2023-01-11T05:10:15.690Z,7.55
2023-01-11T05:12:47.067Z,7.56
2023-01-11T05:15:17.581Z,7.49
2023-01-11T05:17:48.058Z,7.51
2023-01-11T05:20:21.248Z,7.44
2023-01-11T05:22:51.579Z,7.53
2023-01-11T05:25:21.870Z,7.59
2023-01-11T05:27:52.187Z,7.57
2023-01-11T05:30:22.779Z,7.62
2023-01-11T05:32:53.124Z,7.71
2023-01-11T05:35:26.395Z,7.66
2023-01-11T05:37:56.682Z,7.61
2023-01-11T05:40:26.953Z,7.68
2023-01-11T05:42:57.425Z,7.69
2023-01-11T05:45:32.460Z,7.71
2023-01-11T05:48:02.951Z,7.74
2023-01-11T05:50:36.019Z,7.84
2023-01-11T05:53:07.198Z,7.83
2023-01-11T05:55:37.238Z,7.80
2023-01-11T05:58:09.607Z,7.72
2023-01-11T06:00:39.945Z,7.79
2023-01-11T06:03:10.247Z,7.69
2023-01-11T06:05:44.320Z,7.68
2023-01-11T06:08:17.327Z,7.64
2023-01-11T06:10:53.703Z,7.69
2023-01-11T06:13:30.853Z,7.91
2023-01-11T06:16:03.903Z,7.95
2023-01-11T06:18:37.259Z,7.82
2023-01-11T06:21:11.619Z,7.73
2023-01-11T06:23:46.309Z,7.72
2023-01-11T06:26:19.145Z,7.67
2023-01-11T06:28:50.579Z,7.60
2023-01-11T06:31:21.543Z,7.54
2023-01-11T06:33:51.974Z,7.58
2023-01-11T06:36:24.886Z,7.57
2023-01-11T06:38:55.864Z,7.57
2023-01-11T06:41:26.198Z,7.58
2023-01-11T06:43:56.579Z,7.64
2023-01-11T06:46:28.970Z,7.66
2023-01-11T06:48:59.487Z,7.74
2023-01-11T06:51:32.597Z,7.80
2023-01-11T06:54:02.856Z,7.81
2023-01-11T06:56:33.206Z,7.84
2023-01-11T06:59:03.521Z,7.85
2023-01-11T07:01:33.934Z,7.93
2023-01-11T07:04:04.596Z,7.97
2023-01-11T07:06:40.265Z,7.97
2023-01-11T07:09:10.595Z,7.98
2023-01-11T07:11:41.648Z,8.00
2023-01-11T07:14:12.281Z,8.02
2023-01-11T07:16:42.831Z,8.12
2023-01-11T07:19:13.200Z,8.13
2023-01-11T07:21:48.989Z,8.18
2023-01-11T07:24:19.828Z,8.20
2023-01-11T07:26:50.244Z,8.23
2023-01-11T07:29:20.573Z,8.26
2023-01-11T07:31:51.061Z,8.32
2023-01-11T07:34:21.643Z,8.40
2023-01-11T07:36:54.722Z,8.43
2023-01-11T07:39:34.872Z,8.46
2023-01-11T07:42:26.580Z,8.40
2023-01-11T07:44:56.855Z,8.35
2023-01-11T07:47:27.669Z,8.36
2023-01-11T07:49:58.030Z,8.42
2023-01-11T07:52:30.895Z,8.43
2023-01-11T07:55:02.868Z,8.43
2023-01-11T07:57:33.629Z,8.38
2023-01-11T08:00:04.201Z,8.40
2023-01-11T08:02:41.898Z,8.40
2023-01-11T08:05:13.403Z,8.38
2023-01-11T08:07:47.538Z,8.34
2023-01-11T08:10:18.959Z,8.32
2023-01-11T08:13:03.246Z,8.33
2023-01-11T08:15:34.133Z,8.36
2023-01-11T08:18:05.951Z,8.37
2023-01-11T08:20:36.423Z,8.42
2023-01-11T08:23:11.649Z,8.47
2023-01-11T08:25:42.074Z,8.56
2023-01-11T08:28:14.525Z,8.57
2023-01-11T08:30:44.968Z,8.62
2023-01-11T08:33:15.371Z,8.61
2023-01-11T08:35:45.627Z,8.68
2023-01-11T08:38:18.582Z,8.76
2023-01-11T08:40:48.879Z,8.84
2023-01-11T08:43:19.277Z,8.84
2023-01-11T08:45:49.698Z,8.86
2023-01-11T08:48:20.471Z,8.84
2023-01-11T08:50:53.485Z,8.82
2023-01-11T08:53:26.430Z,8.86
2023-01-11T08:55:57.391Z,8.86
2023-01-11T08:58:28.214Z,8.94
2023-01-11T09:01:04.060Z,9.01
2023-01-11T09:03:34.562Z,9.08
2023-01-11T09:06:05.443Z,9.09
2023-01-11T09:08:38.542Z,9.12
2023-01-11T09:11:29.202Z,9.18
2023-01-11T09:13:59.491Z,9.22
2023-01-11T09:16:29.770Z,9.24
2023-01-11T09:19:00.091Z,9.21
2023-01-11T09:21:31.076Z,9.21
2023-01-11T09:24:04.699Z,9.21
2023-01-11T09:26:35.912Z,9.34
2023-01-11T09:29:06.389Z,9.35
2023-01-11T09:31:36.838Z,9.37
2023-01-11T09:34:08.364Z,9.41
2023-01-11T09:36:40.263Z,9.53
2023-01-11T09:39:18.436Z,9.70
2023-01-11T09:42:36.733Z,9.79
2023-01-11T09:45:17.565Z,9.92
2023-01-11T09:47:51.908Z,10.02
2023-01-11T09:50:28.047Z,9.93
2023-01-11T09:53:03.496Z,9.91
2023-01-11T09:55:40.822Z,9.94
2023-01-11T09:58:36.568Z,10.08
2023-01-11T10:01:16.523Z,10.08
2023-01-11T10:04:26.036Z,9.97
2023-01-11T10:07:38.491Z,9.93
2023-01-11T10:18:34.249Z,10.08
2023-01-11T10:19:41.899Z,10.12
2023-01-11T10:22:20.274Z,10.12
2023-01-11T10:24:56.472Z,10.22
2023-01-11T10:27:33.859Z,10.26
2023-01-11T10:30:33.498Z,10.43
2023-01-11T10:33:18.443Z,10.50
2023-01-11T10:36:14.961Z,10.63
2023-01-11T10:38:59.282Z,10.57
2023-01-11T10:41:43.030Z,10.48
2023-01-11T10:44:19.777Z,10.54
2023-01-11T10:46:56.233Z,10.56
2023-01-11T10:49:43.342Z,10.61
2023-01-11T10:52:37.104Z,10.70
2023-01-11T10:55:15.766Z,10.85
2023-01-11T10:58:03.604Z,11.00
2023-01-11T11:00:43.065Z,11.02
2023-01-11T11:04:00.033Z,10.98
2023-01-11T11:06:41.797Z,11.20
2023-01-11T11:09:23.893Z,11.46
2023-01-11T11:12:01.108Z,11.57
2023-01-11T11:14:37.470Z,11.83
2023-01-11T11:17:19.928Z,12.09
2023-01-11T11:19:53.114Z,12.15
2023-01-11T11:22:23.839Z,11.94
2023-01-11T11:25:02.554Z,12.00
2023-01-11T11:27:40.708Z,12.00
2023-01-11T11:30:15.231Z,11.89
2023-01-11T11:32:57.260Z,12.02
2023-01-11T11:35:44.045Z,12.06
2023-01-11T11:38:25.655Z,12.13
2023-01-11T11:41:01.828Z,12.20
2023-01-11T11:43:32.154Z,12.07
2023-01-11T11:46:04.482Z,11.67
2023-01-11T11:48:36.892Z,11.63
2023-01-11T11:51:20.334Z,11.78
2023-01-11T11:53:55.894Z,11.70
2023-01-11T11:56:30.697Z,11.69
2023-01-11T11:59:02.781Z,11.75
2023-01-11T12:01:36.236Z,11.66
2023-01-11T12:04:15.454Z,11.71
2023-01-11T12:06:55.682Z,11.47
2023-01-11T12:09:32.895Z,11.53
2023-01-11T12:12:04.181Z,11.53
2023-01-11T12:14:36.612Z,11.43
2023-01-11T12:17:26.460Z,11.29
2023-01-11T12:19:56.796Z,11.22
2023-01-11T12:22:31.935Z,11.24
2023-01-11T12:25:25.286Z,11.06
2023-01-11T12:28:05.699Z,11.14
2023-01-11T12:30:45.050Z,11.09
2023-01-11T12:33:38.046Z,11.08
2023-01-11T12:36:13.692Z,11.03
2023-01-11T12:39:05.250Z,10.99
2023-01-11T12:42:12.098Z,10.93
2023-01-11T12:45:06.339Z,10.76
2023-01-11T12:48:13.516Z,10.73
2023-01-11T12:50:59.088Z,10.64
2023-01-11T12:53:48.272Z,10.61
2023-01-11T12:56:53.617Z,10.58
2023-01-11T12:59:49.271Z,10.48
2023-01-11T13:02:39.789Z,10.41
2023-01-11T13:05:26.414Z,10.40
2023-01-11T13:08:11.863Z,10.37
2023-01-11T13:10:55.808Z,10.37
2023-01-11T13:13:37.380Z,10.37
2023-01-11T13:16:17.261Z,10.30
2023-01-11T13:18:57.295Z,10.34
2023-01-11T13:21:36.288Z,10.37
2023-01-11T13:24:15.276Z,10.30
2023-01-11T13:26:51.555Z,10.17
2023-01-11T13:29:28.725Z,10.10
2023-01-11T13:32:03.119Z,10.07
2023-01-11T13:34:39.867Z,10.06
2023-01-11T13:37:20.875Z,10.00
2023-01-11T13:39:57.038Z,9.95
2023-01-11T13:42:37.079Z,9.96
2023-01-11T13:45:19.486Z,9.93
2023-01-11T13:47:55.908Z,9.97
2023-01-11T13:50:32.126Z,9.93
2023-01-11T13:53:12.649Z,9.90
2023-01-11T13:55:54.578Z,9.82
2023-01-11T13:58:36.762Z,9.81
2023-01-11T14:01:13.669Z,9.81
2023-01-11T14:03:51.217Z,9.86
2023-01-11T14:06:44.936Z,9.83
2023-01-11T14:09:37.881Z,9.86
2023-01-11T14:12:18.019Z,9.86
2023-01-11T14:15:10.988Z,9.80
2023-01-11T14:18:09.388Z,9.80
2023-01-11T14:20:50.207Z,9.84
2023-01-11T14:23:23.817Z,9.77
2023-01-11T14:26:17.464Z,9.81
2023-01-11T14:29:04.525Z,9.81
2023-01-11T14:32:24.789Z,9.77
2023-01-11T14:35:36.501Z,9.82
2023-01-11T14:38:31.317Z,9.74
2023-01-11T14:41:36.661Z,9.70
2023-01-11T14:44:42.608Z,9.70
2023-01-11T14:47:54.835Z,9.71
2023-01-11T14:50:38.640Z,9.62
2023-01-11T14:53:14.229Z,9.63
2023-01-11T14:55:49.268Z,9.64
2023-01-11T14:58:27.150Z,9.63
2023-01-11T15:01:13.243Z,9.59
2023-01-11T15:03:51.302Z,9.66
2023-01-11T15:06:23.268Z,9.69
2023-01-11T15:08:57.140Z,9.78
2023-01-11T15:11:40.926Z,9.74
2023-01-11T15:14:32.809Z,9.71
2023-01-11T15:17:18.083Z,9.66
2023-01-11T15:19:53.455Z,9.67
2023-01-11T15:22:31.393Z,9.64
2023-01-11T15:25:04.589Z,9.59
2023-01-11T15:27:38.577Z,9.62
2023-01-11T15:30:32.285Z,9.67
2023-01-11T15:33:31.297Z,9.60
2023-01-11T15:36:11.520Z,9.54
2023-01-11T15:38:53.754Z,9.52
2023-01-11T15:41:58.220Z,9.48
2023-01-11T15:44:54.709Z,9.51
2023-01-11T15:47:52.011Z,9.51
2023-01-11T15:51:07.709Z,9.54
2023-01-11T15:54:28.905Z,9.55
2023-01-11T15:57:49.853Z,9.56
2023-01-11T16:00:56.741Z,9.55
2023-01-11T16:04:03.115Z,9.57
2023-01-11T16:06:44.548Z,9.66
2023-01-11T16:09:56.236Z,9.61
2023-01-11T16:12:49.043Z,9.62
2023-01-11T16:15:33.455Z,9.50
2023-01-11T16:18:15.637Z,9.54
2023-01-11T16:20:57.846Z,9.57
2023-01-11T16:23:28.274Z,9.58
2023-01-11T16:26:02.342Z,9.48
2023-01-11T16:28:32.769Z,9.50
2023-01-11T16:31:06.170Z,9.43
2023-01-11T16:33:37.535Z,9.48
2023-01-11T16:36:12.961Z,9.47
2023-01-11T16:38:52.416Z,9.49
2023-01-11T16:41:29.020Z,9.43
2023-01-11T16:44:06.524Z,9.34
2023-01-11T16:47:15.857Z,9.32
2023-01-11T16:49:52.304Z,9.30
2023-01-11T16:52:48.777Z,9.37
2023-01-11T16:55:34.204Z,9.37
2023-01-11T16:58:10.497Z,9.32
2023-01-11T17:00:41.966Z,9.31
2023-01-11T17:03:27.065Z,9.32
2023-01-11T17:06:22.952Z,9.35
2023-01-11T17:09:00.059Z,9.40
2023-01-11T17:11:35.793Z,9.39
2023-01-11T17:14:34.210Z,9.38
2023-01-11T17:17:07.628Z,9.44
2023-01-11T17:19:41.720Z,9.40
2023-01-11T17:22:21.951Z,9.36
2023-01-11T17:24:56.479Z,9.32
2023-01-11T17:27:33.211Z,9.27
2023-01-11T17:30:08.340Z,9.31
2023-01-11T17:32:41.822Z,9.33
2023-01-11T17:35:20.230Z,9.35
2023-01-11T17:37:53.549Z,9.35
2023-01-11T17:40:27.211Z,9.40
2023-01-11T17:43:18.934Z,9.49
2023-01-11T17:45:55.400Z,9.44
2023-01-11T17:48:27.035Z,9.47
2023-01-11T17:51:00.226Z,9.44
2023-01-11T17:53:32.652Z,9.39
2023-01-11T17:56:05.754Z,9.35
2023-01-11T17:58:37.522Z,9.31
2023-01-11T18:01:31.446Z,9.32
2023-01-11T18:04:02.420Z,9.34
2023-01-11T18:06:40.144Z,9.29
2023-01-11T18:09:24.236Z,9.26
2023-01-11T18:11:56.843Z,9.26
2023-01-11T18:14:31.377Z,9.18
2023-01-11T18:17:08.206Z,9.18
2023-01-11T18:19:43.898Z,9.19
2023-01-11T18:22:32.932Z,9.12
2023-01-11T18:25:06.123Z,9.08
2023-01-11T18:27:38.289Z,9.04
2023-01-11T18:30:11.481Z,9.14
2023-01-11T18:32:46.390Z,9.10
2023-01-11T18:35:20.318Z,9.08
2023-01-11T18:37:50.793Z,9.13
2023-01-11T18:40:22.678Z,9.16
2023-01-11T18:42:56.289Z,9.24
2023-01-11T18:45:26.637Z,9.30
2023-01-11T18:47:59.643Z,9.36
2023-01-11T18:50:29.907Z,9.49
2023-01-11T18:53:03.140Z,9.52
2023-01-11T18:55:33.967Z,9.52
2023-01-11T18:58:04.401Z,9.60
2023-01-11T19:00:35.130Z,9.54
2023-01-11T19:03:09.026Z,9.59
2023-01-11T19:05:40.188Z,9.49
2023-01-11T19:08:10.705Z,9.49
2023-01-11T19:10:41.064Z,9.35
2023-01-11T19:13:12.414Z,9.32
2023-01-11T19:15:42.757Z,9.29
2023-01-11T19:18:16.223Z,9.25
2023-01-11T19:20:46.750Z,9.32
2023-01-11T19:23:17.248Z,9.37
2023-01-11T19:25:47.640Z,9.39
2023-01-11T19:28:17.924Z,9.47
2023-01-11T19:30:48.272Z,9.47
2023-01-11T19:33:21.279Z,9.36
2023-01-11T19:35:51.805Z,9.36
2023-01-11T19:38:23.475Z,9.39
2023-01-11T19:40:53.792Z,9.38
2023-01-11T19:43:24.078Z,9.36
2023-01-11T19:45:58.923Z,9.29
2023-01-11T19:48:34.434Z,9.31
2023-01-11T19:51:07.537Z,9.28
2023-01-11T19:53:38.886Z,9.25
2023-01-11T19:56:11.752Z,9.29
2023-01-11T19:58:42.379Z,9.28
2023-01-11T20:01:14.476Z,9.31
2023-01-11T20:03:47.629Z,9.25
2023-01-11T20:06:17.913Z,9.19
2023-01-11T20:08:48.164Z,9.19
2023-01-11T20:11:19.188Z,9.17
2023-01-11T20:13:50.833Z,9.17
2023-01-11T20:16:23.719Z,9.07
2023-01-11T20:18:59.015Z,8.95
2023-01-11T20:21:34.289Z,8.91
2023-01-11T20:24:05.223Z,8.82
2023-01-11T20:26:35.946Z,8.65
2023-01-11T20:29:06.630Z,8.57
2023-01-11T20:31:37.667Z,8.50
2023-01-11T20:34:11.778Z,8.47
2023-01-11T20:36:42.764Z,8.37
2023-01-11T20:39:14.518Z,8.31
2023-01-11T20:41:51.098Z,8.37
2023-01-11T20:44:24.029Z,8.36
2023-01-11T20:46:55.747Z,8.33
2023-01-11T20:49:30.976Z,8.29
2023-01-11T20:52:01.445Z,8.26
2023-01-11T20:54:32.024Z,8.26
2023-01-11T20:57:05.658Z,8.19
2023-01-11T20:59:35.994Z,8.20
2023-01-11T21:02:07.676Z,8.15
2023-01-11T21:04:40.683Z,8.06
2023-01-11T21:07:11.055Z,8.00
2023-01-11T21:09:41.649Z,7.94
2023-01-11T21:12:12.079Z,7.89
2023-01-11T21:14:42.482Z,7.80
2023-01-11T21:17:12.932Z,7.77
2023-01-11T21:19:45.946Z,7.74
2023-01-11T21:22:16.283Z,7.73
2023-01-11T21:24:48.453Z,7.77
2023-01-11T21:27:18.746Z,7.77
2023-01-11T21:29:49.367Z,7.79
2023-01-11T21:32:19.823Z,7.81
2023-01-11T21:34:52.944Z,7.85
2023-01-11T21:37:24.780Z,7.72
2023-01-11T21:39:55.318Z,7.77
2023-01-11T21:42:25.707Z,7.79
2023-01-11T21:44:56.063Z,7.70
2023-01-11T21:47:26.432Z,7.62
2023-01-11T21:49:59.732Z,7.52
2023-01-11T21:52:30.081Z,7.50
2023-01-11T21:55:00.424Z,7.43
2023-01-11T21:57:30.785Z,7.49
2023-01-11T22:00:01.236Z,7.42
2023-01-11T22:02:31.662Z,7.45
2023-01-11T22:05:04.797Z,7.50
2023-01-11T22:07:35.130Z,7.65
2023-01-11T22:10:05.840Z,7.64
2023-01-11T22:12:37.314Z,7.63
2023-01-11T22:15:08.890Z,7.72
2023-01-11T22:17:39.197Z,7.71
2023-01-11T22:20:15.353Z,7.69
2023-01-11T22:22:45.909Z,7.64
2023-01-11T22:25:17.180Z,7.60
2023-01-11T22:27:47.520Z,7.58
2023-01-11T22:30:18.722Z,7.54
2023-01-11T22:32:48.826Z,7.57
2023-01-11T22:35:21.817Z,7.52
2023-01-11T22:37:52.383Z,7.61
2023-01-11T22:40:22.996Z,7.64
2023-01-11T22:42:53.331Z,7.63
2023-01-11T22:45:23.765Z,7.71
2023-01-11T22:47:54.290Z,7.66
2023-01-11T22:50:27.330Z,7.64
2023-01-11T22:52:57.779Z,7.66
2023-01-11T22:55:28.520Z,7.68
2023-01-11T22:57:59.981Z,7.54
2023-01-11T23:00:30.337Z,7.61
2023-01-11T23:03:01.182Z,7.50
2023-01-11T23:05:34.434Z,7.53
2023-01-11T23:08:05.080Z,7.58
2023-01-11T23:10:35.541Z,7.62
2023-01-11T23:13:18.288Z,7.52
2023-01-11T23:15:50.922Z,7.44
2023-01-11T23:18:21.333Z,7.41
2023-01-11T23:20:54.328Z,7.43
2023-01-11T23:23:24.663Z,7.53
2023-01-11T23:25:57.501Z,7.53
2023-01-11T23:28:29.970Z,7.52
2023-01-11T23:31:00.217Z,7.63
2023-01-11T23:33:30.495Z,7.68
2023-01-11T23:36:04.701Z,7.62
2023-01-11T23:38:35.675Z,7.66
2023-01-11T23:41:23.423Z,7.79
2023-01-11T23:43:53.821Z,7.84
2023-01-11T23:46:37.142Z,7.92
2023-01-11T23:49:09.128Z,7.96
2023-01-11T23:51:42.039Z,7.96
2023-01-11T23:54:12.625Z,7.94
2023-01-11T23:56:43.400Z,7.88
2023-01-11T23:59:14.135Z,7.77
